createdAt,value
2023-01-07T00:00:30.401Z,23.45
2023-01-07T00:05:31.985Z,22.45
2023-01-07T00:10:34.780Z,22.67
2023-01-07T00:15:36.347Z,21.35
2023-01-07T00:20:37.893Z,21.23
2023-01-07T00:25:39.455Z,21.25
2023-01-07T00:30:40.995Z,20.13
2023-01-07T00:35:44.936Z,18.35
2023-01-07T00:40:46.439Z,18.15
2023-01-07T00:45:47.993Z,17.45
2023-01-07T00:50:51.487Z,18.73
2023-01-07T00:55:53.060Z,16.85
2023-01-07T01:00:59.585Z,18.27
2023-01-07T01:06:06.613Z,18.88
2023-01-07T01:11:09.859Z,18.53
2023-01-07T01:16:14.097Z,18.80
2023-01-07T01:21:16.353Z,18.83
2023-01-07T01:26:17.977Z,18.63
2023-01-07T01:31:19.540Z,18.10
2023-01-07T01:36:21.176Z,18.90
2023-01-07T01:41:23.228Z,17.95
2023-01-07T01:46:39.693Z,17.38
2023-01-07T01:51:46.383Z,17.27
2023-01-07T01:56:51.123Z,16.92
2023-01-07T02:01:53.562Z,16.17
2023-01-07T02:07:04.018Z,14.45
2023-01-07T02:12:26.472Z,13.07
2023-01-07T02:18:11.062Z,12.77
2023-01-07T02:23:40.354Z,12.38
2023-01-07T02:29:01.041Z,12.63
2023-01-07T02:34:34.926Z,11.02
2023-01-07T02:39:51.072Z,11.90
2023-01-07T02:45:19.867Z,12.40
2023-01-07T02:50:21.380Z,12.52
2023-01-07T02:55:30.765Z,12.32
2023-01-07T03:00:39.698Z,13.18
2023-01-07T03:05:53.380Z,13.75
2023-01-07T03:11:05.589Z,12.73
2023-01-07T03:16:23.907Z,13.63
2023-01-07T03:21:28.263Z,13.98
2023-01-07T03:26:42.338Z,14.02
2023-01-07T03:31:57.389Z,13.98
2023-01-07T03:37:04.750Z,15.10
2023-01-07T03:42:26.806Z,15.57
2023-01-07T03:47:29.035Z,15.10
2023-01-07T03:52:30.624Z,17.48
2023-01-07T03:57:33.243Z,16.02
2023-01-07T04:02:34.949Z,16.83
2023-01-07T04:07:36.937Z,16.08
2023-01-07T04:12:38.427Z,15.13
2023-01-07T04:17:39.938Z,14.38
2023-01-07T04:22:41.732Z,15.43
2023-01-07T04:27:43.217Z,15.38
2023-01-07T04:32:44.765Z,15.93
2023-01-07T04:37:46.298Z,15.40
2023-01-07T04:42:47.810Z,14.93
2023-01-07T04:47:49.368Z,14.75
2023-01-07T04:52:51.246Z,14.68
2023-01-07T04:57:52.771Z,13.93
2023-01-07T05:02:54.287Z,13.27
2023-01-07T05:07:55.838Z,12.75
2023-01-07T05:12:57.377Z,12.52
2023-01-07T05:17:58.883Z,11.63
2023-01-07T05:23:00.422Z,11.85
2023-01-07T05:28:02.044Z,11.50
2023-01-07T05:33:07.124Z,10.45
2023-01-07T05:38:08.631Z,11.23
2023-01-07T05:43:10.161Z,11.48
2023-01-07T05:48:12.602Z,10.93
2023-01-07T05:53:14.196Z,12.02
2023-01-07T05:58:15.701Z,11.32
2023-01-07T06:03:17.273Z,11.80
2023-01-07T06:08:18.739Z,12.00
2023-01-07T06:13:20.251Z,12.32
2023-01-07T06:18:21.741Z,12.13
2023-01-07T06:23:23.723Z,11.95
2023-01-07T06:28:25.323Z,11.85
2023-01-07T06:33:26.855Z,11.20
2023-01-07T06:38:28.394Z,11.45
2023-01-07T06:43:30.361Z,11.27
2023-01-07T06:48:31.960Z,11.38
2023-01-07T06:53:33.535Z,11.02
2023-01-07T06:58:35.089Z,10.98
2023-01-07T07:03:36.625Z,9.50
2023-01-07T07:08:38.139Z,9.50
2023-01-07T07:13:39.665Z,8.70
2023-01-07T07:18:41.169Z,8.18
2023-01-07T07:23:42.679Z,7.93
2023-01-07T07:28:44.759Z,7.88
2023-01-07T07:33:46.246Z,7.60
2023-01-07T07:38:47.776Z,6.80
2023-01-07T07:43:49.605Z,7.78
2023-01-07T07:48:51.171Z,5.55
2023-01-07T07:53:52.691Z,6.40
2023-01-07T07:58:54.184Z,5.47
2023-01-07T08:03:55.868Z,5.32
2023-01-07T08:08:57.365Z,5.10
2023-01-07T08:13:58.881Z,5.03
2023-01-07T08:19:00.433Z,4.50
2023-01-07T08:24:01.978Z,4.53
2023-01-07T08:29:03.578Z,4.15
2023-01-07T08:34:05.116Z,3.63
2023-01-07T08:39:06.649Z,3.72
2023-01-07T08:44:08.141Z,3.30
2023-01-07T08:49:10.727Z,2.88
2023-01-07T08:54:12.245Z,2.65
2023-01-07T08:59:13.721Z,2.42
2023-01-07T09:04:15.236Z,2.22
2023-01-07T09:09:17.555Z,2.10
2023-01-07T09:14:19.072Z,2.35
2023-01-07T09:19:20.714Z,2.05
2023-01-07T09:24:22.260Z,2.03
2023-01-07T09:29:23.731Z,2.05
2023-01-07T09:34:25.201Z,1.80
2023-01-07T09:39:26.766Z,1.92
2023-01-07T09:44:59.202Z,2.05
2023-01-07T09:50:14.123Z,1.70
2023-01-07T09:55:27.504Z,1.77
2023-01-07T10:00:31.792Z,1.30
2023-01-07T10:05:33.229Z,1.27
2023-01-07T10:10:46.752Z,1.40
2023-01-07T10:16:11.473Z,1.30
2023-01-07T10:21:20.970Z,0.98
2023-01-07T10:26:33.505Z,1.10
2023-01-07T10:31:36.374Z,1.08
2023-01-07T10:36:46.403Z,1.27
2023-01-07T10:42:11.953Z,1.13
2023-01-07T10:47:38.290Z,1.00
2023-01-07T10:53:03.014Z,0.90
2023-01-07T10:58:04.983Z,0.95
2023-01-07T11:03:16.369Z,0.93
2023-01-07T11:08:29.054Z,0.70
2023-01-07T11:13:33.034Z,0.77
2023-01-07T11:18:51.568Z,0.70
2023-01-07T11:23:53.147Z,0.80
2023-01-07T11:28:58.064Z,0.70
2023-01-07T11:34:01.559Z,0.70
2023-01-07T11:39:11.923Z,1.05
2023-01-07T11:44:16.329Z,0.90
2023-01-07T11:49:27.635Z,1.10
2023-01-07T11:54:29.905Z,1.00
2023-01-07T11:59:31.481Z,1.20
2023-01-07T12:04:35.904Z,1.20
2023-01-07T12:09:39.925Z,1.52
2023-01-07T12:14:47.503Z,1.10
2023-01-07T12:25:22.876Z,1.10
2023-01-07T12:30:24.458Z,1.10
2023-01-07T12:35:47.827Z,1.52
2023-01-07T12:40:57.708Z,1.52
2023-01-07T12:46:02.526Z,1.10
2023-01-07T12:51:22.694Z,1.33
2023-01-07T12:56:29.041Z,1.60
2023-01-07T13:01:36.803Z,1.88
2023-01-07T13:06:44.896Z,2.80
2023-01-07T13:12:42.108Z,1.45
2023-01-07T13:17:32.496Z,1.40
2023-01-07T13:22:53.139Z,1.20
2023-01-07T13:28:19.386Z,1.30
2023-01-07T13:33:39.997Z,1.17
2023-01-07T13:39:19.015Z,0.90
2023-01-07T13:44:38.656Z,1.33
2023-01-07T13:49:41.075Z,1.25
2023-01-07T13:55:01.459Z,1.50
2023-01-07T14:00:06.989Z,1.30
2023-01-07T14:05:11.603Z,1.60
2023-01-07T14:10:32.585Z,1.45
2023-01-07T14:16:09.381Z,1.20
2023-01-07T14:21:26.492Z,1.70
2023-01-07T14:26:54.996Z,5.53
2023-01-07T14:32:22.815Z,4.50
2023-01-07T14:37:38.324Z,7.22
2023-01-07T14:42:44.441Z,2.42
2023-01-07T14:47:46.193Z,1.70
2023-01-07T14:53:09.057Z,1.60
2023-01-07T14:58:28.433Z,1.55
2023-01-07T15:03:48.855Z,2.13
2023-01-07T15:09:29.325Z,1.83
2023-01-07T15:14:59.276Z,1.70
2023-01-07T15:20:05.800Z,2.22
2023-01-07T15:25:14.930Z,1.85
2023-01-07T15:30:38.062Z,1.70
2023-01-07T15:35:43.091Z,2.53
2023-01-07T15:40:46.921Z,3.92
2023-01-07T15:45:49.718Z,2.55
2023-01-07T15:50:51.892Z,1.73
2023-01-07T15:56:03.944Z,2.70
2023-01-07T16:01:07.770Z,2.17
2023-01-07T16:06:39.284Z,2.00
2023-01-07T16:11:40.850Z,2.05
2023-01-07T16:16:42.485Z,2.22
2023-01-07T16:21:53.166Z,2.00
2023-01-07T16:27:05.595Z,1.98
2023-01-07T16:32:07.826Z,1.85
2023-01-07T16:37:15.761Z,1.90
2023-01-07T16:42:19.909Z,2.25
2023-01-07T16:47:27.145Z,2.10
2023-01-07T16:52:49.615Z,2.13
2023-01-07T16:57:51.131Z,2.05
2023-01-07T17:02:59.689Z,2.17
2023-01-07T17:08:05.773Z,2.83
2023-01-07T17:13:31.996Z,2.80
2023-01-07T17:18:34.565Z,4.30
2023-01-07T17:23:42.234Z,3.05
2023-01-07T17:33:48.219Z,2.45
2023-01-07T17:38:50.007Z,2.80
2023-01-07T17:43:51.518Z,3.13
2023-01-07T17:48:53.603Z,2.65
2023-01-07T17:53:58.928Z,2.97
2023-01-07T17:59:00.568Z,2.80
2023-01-07T18:04:02.105Z,5.65
2023-01-07T18:09:04.919Z,4.68
2023-01-07T18:14:06.923Z,6.60
2023-01-07T18:19:12.273Z,6.95
2023-01-07T18:24:19.650Z,7.90
2023-01-07T18:29:21.196Z,3.90
2023-01-07T18:34:22.733Z,4.40
2023-01-07T18:39:24.245Z,4.38
2023-01-07T18:44:25.983Z,5.07
2023-01-07T18:49:27.529Z,4.75
2023-01-07T18:54:31.340Z,4.40
2023-01-07T18:59:32.874Z,4.97
2023-01-07T19:04:37.416Z,5.63
2023-01-07T19:09:39.021Z,4.40
2023-01-07T19:14:40.920Z,3.63
2023-01-07T19:19:48.282Z,3.33
2023-01-07T19:24:50.479Z,4.53
2023-01-07T19:29:52.019Z,3.40
2023-01-07T19:34:53.525Z,3.33
2023-01-07T19:39:54.985Z,3.85
2023-01-07T19:44:56.552Z,3.17
2023-01-07T19:49:58.037Z,3.20
2023-01-07T19:54:59.574Z,7.70
2023-01-07T20:00:01.768Z,2.83
2023-01-07T20:05:03.326Z,3.42
2023-01-07T20:10:05.075Z,3.45
2023-01-07T20:15:07.260Z,3.60
2023-01-07T20:20:09.868Z,3.45
2023-01-07T20:25:12.294Z,3.67
2023-01-07T20:30:13.865Z,3.30
2023-01-07T20:35:15.399Z,4.93
2023-01-07T20:40:16.931Z,5.72
2023-01-07T20:45:18.499Z,4.50
2023-01-07T20:50:19.972Z,4.55
2023-01-07T20:55:21.512Z,5.00
2023-01-07T21:00:23.035Z,5.13
2023-01-07T21:05:24.675Z,4.95
2023-01-07T21:10:26.351Z,4.70
2023-01-07T21:15:28.447Z,4.90
2023-01-07T21:20:30.439Z,4.22
2023-01-07T21:25:32.013Z,4.55
2023-01-07T21:30:33.991Z,3.97
2023-01-07T21:35:39.417Z,4.25
2023-01-07T21:40:40.994Z,4.55
2023-01-07T21:45:42.506Z,6.07
2023-01-07T21:50:44.009Z,4.50
2023-01-07T21:55:45.571Z,4.40
2023-01-07T22:00:53.098Z,4.03
2023-01-07T22:10:59.670Z,4.22
2023-01-07T22:16:04.894Z,4.07
2023-01-07T22:21:06.496Z,4.20
2023-01-07T22:26:08.491Z,4.07
2023-01-07T22:31:20.975Z,4.38
2023-01-07T22:36:34.541Z,4.15
2023-01-07T22:41:37.111Z,4.65
2023-01-07T22:46:40.689Z,4.05
2023-01-07T22:51:45.589Z,4.40
2023-01-07T22:56:48.033Z,4.60
2023-01-07T23:01:49.553Z,4.28
2023-01-07T23:06:51.067Z,4.60
2023-01-07T23:11:54.758Z,4.10
2023-01-07T23:16:56.640Z,4.30
2023-01-07T23:21:58.094Z,4.63
2023-01-07T23:26:59.675Z,3.95
2023-01-07T23:32:01.271Z,4.82
2023-01-07T23:37:02.910Z,4.30
2023-01-07T23:42:04.430Z,4.00
2023-01-07T23:47:06.013Z,3.67
2023-01-07T23:52:07.577Z,3.38
2023-01-07T23:57:09.534Z,3.00
